This is the latest recevied weather packets stored in our database for station/object EA6AMR-10. If no packets are shown the sender has not sent any weather packets the latest 10 day(s).
| Time | Temp. | Humidity | Pressure | Rain* | Wind** | Luminosity | Snow |
|---|---|---|---|---|---|---|---|
| 1777573772 | 22.78° C | 49% | 1015.7 hPa | - | - | - | - |
| 1777572872 | 23.33° C | 49% | 1015.6 hPa | - | - | - | - |
| 1777571972 | 25° C | 48% | 1015.4 hPa | - | - | - | - |
| 1777571072 | 26.67° C | 47% | 1015.5 hPa | - | - | - | - |
| 1777570171 | 27.78° C | 47% | 1015.4 hPa | - | - | - | - |
| 1777569303 | 28.33° C | 47% | 1015.3 hPa | - | - | - | - |
| 1777569271 | 28.33° C | 47% | 1015.3 hPa | - | - | - | - |
| 1777568371 | 28.89° C | 46% | 1015.3 hPa | - | - | - | - |
| 1777567471 | 28.89° C | 47% | 1015.3 hPa | - | - | - | - |
| 1777566571 | 30.56° C | 46% | 1015.2 hPa | - | - | - | - |
| 1777565670 | 30.56° C | 46% | 1015.1 hPa | - | - | - | - |
| 1777564770 | 30.56° C | 46% | 1015 hPa | - | - | - | - |
| 1777563870 | 31.11° C | 45% | 1014.8 hPa | - | - | - | - |
| 1777562970 | 31.67° C | 45% | 1014.9 hPa | - | - | - | - |
| 1777562069 | 32.22° C | 45% | 1014.9 hPa | - | - | - | - |
| 1777561202 | 33.33° C | 44% | 1014.7 hPa | - | - | - | - |
| 1777561169 | 33.33° C | 44% | 1014.7 hPa | - | - | - | - |
| 1777560269 | 31.67° C | 45% | 1014.9 hPa | - | - | - | - |
| 1777559373 | 30° C | 45% | 1015.1 hPa | - | - | - | - |
| 1777558473 | 29.44° C | 46% | 1015.3 hPa | - | - | - | - |
| 1777557573 | 29.44° C | 46% | 1015.3 hPa | - | - | - | - |
| 1777556673 | 28.33° C | 47% | 1015.4 hPa | - | - | - | - |
| 1777555773 | 28.33° C | 47% | 1015.5 hPa | - | - | - | - |
| 1777554872 | 27.78° C | 47% | 1015.7 hPa | - | - | - | - |
| 1777553972 | 27.22° C | 48% | 1015.8 hPa | - | - | - | - |
* Rain since midnight (hover to see other rain measurements)
** Current wind speed in m/s (hover to see current wind gust speed)